Pagrindinis puslapis
METAR-TAF:

METAR-TAF

Oro uostai :

Dijarbakyras, Turkija

platuma: 37-53N, ilguma: 040-11E, Aukštis: 686 m

Dabartinis oras

Ataskaita buvo paskelbta 35 minutes, ne 19:20 UTC
Vėjas 3 kt iš Pietų, svyruoja nuo Pietų/Pietryčių ir Pietų/Pietvakarių
Temperatūra 5°C
Drėgmė 93%
Slėgis 1018 hPa
Matomumas 10 km arba daugiau
nėra debesų žemiau 1500 m ir nėra kamuolinių lietaus debesų

METAR: LTCC 131920Z 17003KT 150V210 CAVOK 05/04 Q1018 NOSIG RMK RWY16 34005KT 270V350

Laikas: 22:55 (19:55 UTC)

Prognozė

Ataskaita buvo paskelbta 3 valandos ir 15 minutes, ne 16:40 UTC
Prognozė galioja nuo 13 metu 18 UTC su 14 metu 18 UTC
Vėjas 9 kt iš Šiaurės Vakarų
Matomumas 10 km arba daugiau
Mažai debesys ne aukštis 2500 ft, Liūtiniai kamuoliniai debesys.
Su prošvaistėmis ne aukštis 3500 ft
Su prošvaistėmis ne aukštis 9000 ft
Tapsmas
nuo 13 metu 18 UTC su 13 metu 20 UTC
Matomumas 10 km arba daugiau
nėra debesų žemiau 1500 m ir nėra kamuolinių lietaus debesų

TAF: LTCC 131640Z 1318/1418 31009KT 9999 FEW025CB BKN035 BKN090 BECMG 1318/1320 CAVOK

Orai ataskaitas ir orų prognozės (METAR, TAF).

turimą stotys yra geltonos ir raudonos taškus žemėlapyje.

Perkelti pele per norėdami pamatyti stoties vardą.

Tada spustelėkite, norėdami matyti oro stebėjimo ir prognozės.

Norėdami pakeisti žemėlapį: spustelėkite ant žalios mygtukų su juodo kryžiaus žemyn,; žalią mygtuką su brūkšneliu, jei norite nutolinti; arba žalių rodyklių gretimoms žemėlapius.


METAR-TAF: